createdAt,value
2023-05-18T00:00:41.321Z,1.69
2023-05-18T00:01:41.300Z,1.70
2023-05-18T00:02:41.398Z,1.68
2023-05-18T00:03:41.423Z,1.66
2023-05-18T00:04:41.457Z,1.67
2023-05-18T00:05:41.414Z,1.67
2023-05-18T00:06:41.424Z,1.69
2023-05-18T00:07:41.411Z,1.67
2023-05-18T00:08:41.397Z,1.69
2023-05-18T00:09:41.420Z,1.67
2023-05-18T00:10:41.408Z,1.69
2023-05-18T00:11:41.509Z,1.65
2023-05-18T00:12:41.467Z,1.66
2023-05-18T00:13:41.506Z,1.66
2023-05-18T00:14:41.530Z,1.65
2023-05-18T00:15:41.549Z,1.64
2023-05-18T00:16:41.646Z,1.67
2023-05-18T00:17:41.568Z,1.66
2023-05-18T00:18:41.614Z,1.64
2023-05-18T00:19:41.602Z,1.68
2023-05-18T00:20:41.632Z,1.67
2023-05-18T00:21:41.664Z,1.64
2023-05-18T00:22:41.703Z,1.62
2023-05-18T00:23:41.748Z,1.63
2023-05-18T00:24:41.771Z,1.66
2023-05-18T00:25:41.808Z,1.63
2023-05-18T00:26:41.843Z,1.65
2023-05-18T00:27:41.903Z,1.64
2023-05-18T00:28:41.930Z,1.63
2023-05-18T00:29:41.940Z,1.62
2023-05-18T00:30:41.942Z,1.64
2023-05-18T00:31:42.007Z,1.63
2023-05-18T00:32:41.971Z,1.62
2023-05-18T00:33:41.926Z,1.62
2023-05-18T00:34:42.040Z,1.59
2023-05-18T00:35:41.959Z,1.62
2023-05-18T00:36:41.969Z,1.63
2023-05-18T00:37:41.955Z,1.60
2023-05-18T00:38:41.984Z,1.61
2023-05-18T00:39:41.955Z,1.59
2023-05-18T00:40:41.949Z,1.62
2023-05-18T00:41:41.943Z,1.59
2023-05-18T00:42:41.959Z,1.63
2023-05-18T00:43:41.978Z,1.62
2023-05-18T00:44:42.012Z,1.62
2023-05-18T00:45:42.070Z,1.59
2023-05-18T00:46:42.005Z,1.62
2023-05-18T00:47:42.029Z,1.58
2023-05-18T00:48:42.019Z,1.61
2023-05-18T00:49:42.083Z,1.58
2023-05-18T00:50:42.018Z,1.60
2023-05-18T00:51:42.087Z,1.62
2023-05-18T00:52:42.024Z,1.61
2023-05-18T00:53:43.923Z,1.58
2023-05-18T00:54:42.010Z,1.60
2023-05-18T00:55:42.047Z,1.58
2023-05-18T00:56:42.099Z,1.57
2023-05-18T00:57:42.043Z,1.59
2023-05-18T00:58:41.993Z,1.59
2023-05-18T00:59:41.993Z,1.58
2023-05-18T01:00:42.675Z,1.56
2023-05-18T01:01:42.136Z,1.58
2023-05-18T01:02:42.049Z,1.56
2023-05-18T01:03:42.052Z,1.56
2023-05-18T01:04:41.964Z,1.53
2023-05-18T01:05:41.960Z,1.58
2023-05-18T01:06:41.961Z,1.54
2023-05-18T01:07:41.948Z,1.58
2023-05-18T01:08:41.933Z,1.55
2023-05-18T01:09:41.941Z,1.57
2023-05-18T01:10:42.005Z,1.56
2023-05-18T01:11:41.979Z,1.56
2023-05-18T01:12:41.908Z,1.55
2023-05-18T01:13:41.904Z,1.53
2023-05-18T01:14:41.897Z,1.56
2023-05-18T01:15:41.883Z,1.54
2023-05-18T01:16:41.936Z,1.56
2023-05-18T01:17:41.888Z,1.53
2023-05-18T01:18:41.858Z,1.53
2023-05-18T01:19:41.856Z,1.52
2023-05-18T01:20:41.826Z,1.56
2023-05-18T01:21:41.815Z,1.53
2023-05-18T01:22:41.813Z,1.53
2023-05-18T01:23:41.802Z,1.51
2023-05-18T01:24:41.807Z,1.51
2023-05-18T01:25:41.793Z,1.53
2023-05-18T01:26:41.789Z,1.54
2023-05-18T01:27:41.777Z,1.50
2023-05-18T01:28:41.775Z,1.51
2023-05-18T01:29:41.791Z,1.52
2023-05-18T01:30:41.802Z,1.52
2023-05-18T01:31:41.789Z,1.51
2023-05-18T01:32:41.812Z,1.52
2023-05-18T01:33:41.766Z,1.51
2023-05-18T01:34:41.762Z,1.53
2023-05-18T01:35:42.691Z,1.50
2023-05-18T01:36:41.763Z,1.52
2023-05-18T01:37:41.765Z,1.47
2023-05-18T01:38:43.890Z,1.49
2023-05-18T01:39:41.955Z,1.48
2023-05-18T01:40:41.969Z,1.52
2023-05-18T01:41:41.973Z,1.47
2023-05-18T01:42:41.965Z,1.50
2023-05-18T01:43:41.974Z,1.50
2023-05-18T01:44:41.964Z,1.49
2023-05-18T01:45:41.970Z,1.49
2023-05-18T01:46:42.059Z,1.49
2023-05-18T01:47:41.976Z,1.47
2023-05-18T01:48:41.955Z,1.49
2023-05-18T01:49:41.946Z,1.47
2023-05-18T01:50:41.951Z,1.48
2023-05-18T01:51:41.932Z,1.45
2023-05-18T01:52:41.953Z,1.47
2023-05-18T01:53:41.914Z,1.47
2023-05-18T01:54:41.996Z,1.48
2023-05-18T01:55:41.938Z,1.43
2023-05-18T01:56:41.932Z,1.46
2023-05-18T01:57:41.920Z,1.44
2023-05-18T01:58:41.961Z,1.45
2023-05-18T01:59:41.907Z,1.46
2023-05-18T02:00:41.903Z,1.48
2023-05-18T02:01:41.956Z,1.49
2023-05-18T02:02:41.969Z,1.45
2023-05-18T02:03:42.076Z,1.45
2023-05-18T02:04:41.912Z,1.47
2023-05-18T02:05:42.780Z,1.45
2023-05-18T02:06:41.902Z,1.45
2023-05-18T02:07:41.904Z,1.46
2023-05-18T02:08:41.932Z,1.50
2023-05-18T02:09:41.894Z,1.44
2023-05-18T02:10:41.912Z,1.45
2023-05-18T02:11:41.890Z,1.48
2023-05-18T02:12:41.946Z,1.46
2023-05-18T02:13:41.862Z,1.48
2023-05-18T02:14:41.962Z,1.45
2023-05-18T02:15:41.909Z,1.45
2023-05-18T02:16:41.968Z,1.48
2023-05-18T02:17:41.902Z,1.46
2023-05-18T02:18:41.875Z,1.44
2023-05-18T02:19:41.835Z,1.45
2023-05-18T02:20:41.830Z,1.47
2023-05-18T02:21:41.810Z,1.44
2023-05-18T02:22:41.822Z,1.44
2023-05-18T02:23:41.810Z,1.46
2023-05-18T02:24:41.810Z,1.43
2023-05-18T02:25:42.700Z,1.46
2023-05-18T02:26:41.786Z,1.43
2023-05-18T02:27:41.783Z,1.45
2023-05-18T02:28:41.782Z,1.42
2023-05-18T02:29:41.784Z,1.44
2023-05-18T02:30:41.869Z,1.41
2023-05-18T02:31:41.878Z,1.47
2023-05-18T02:32:41.791Z,1.41
2023-05-18T02:33:41.755Z,1.43
2023-05-18T02:34:41.767Z,1.42
2023-05-18T02:35:41.756Z,1.42
2023-05-18T02:36:41.755Z,1.44
2023-05-18T02:37:41.763Z,1.40
2023-05-18T02:38:41.754Z,1.42
2023-05-18T02:39:41.749Z,1.41
2023-05-18T02:40:41.734Z,1.40
2023-05-18T02:41:41.745Z,1.40
2023-05-18T02:42:41.733Z,1.40
2023-05-18T02:43:41.732Z,1.39
2023-05-18T02:44:41.730Z,1.42
2023-05-18T02:45:41.741Z,1.43
2023-05-18T02:46:41.764Z,1.39
2023-05-18T02:47:41.742Z,1.38
2023-05-18T02:48:41.714Z,1.42
2023-05-18T02:49:41.715Z,1.38
2023-05-18T02:50:41.715Z,1.40
2023-05-18T02:51:41.723Z,1.42
2023-05-18T02:52:41.772Z,1.39
2023-05-18T02:53:41.733Z,1.40
2023-05-18T02:54:42.221Z,1.39
2023-05-18T02:55:41.782Z,1.40
2023-05-18T02:56:41.716Z,1.40
2023-05-18T02:57:41.694Z,1.37
2023-05-18T02:58:41.696Z,1.39
2023-05-18T02:59:41.742Z,1.36
2023-05-18T03:00:41.692Z,1.38
2023-05-18T03:01:41.761Z,1.41
2023-05-18T03:02:41.753Z,1.38
2023-05-18T03:03:41.729Z,1.37
2023-05-18T03:04:41.721Z,1.36
2023-05-18T03:05:41.679Z,1.37
2023-05-18T03:06:42.213Z,1.38
2023-05-18T03:07:41.759Z,1.36
2023-05-18T03:08:41.681Z,1.36
2023-05-18T03:09:41.709Z,1.38
2023-05-18T03:10:41.697Z,1.36
2023-05-18T03:11:41.696Z,1.40
2023-05-18T03:12:42.236Z,1.38
2023-05-18T03:13:41.690Z,1.36
2023-05-18T03:14:41.715Z,1.38
2023-05-18T03:15:41.694Z,1.35
2023-05-18T03:16:41.704Z,1.36
2023-05-18T03:17:41.805Z,1.34
2023-05-18T03:18:41.712Z,1.34
2023-05-18T03:19:41.692Z,1.37
2023-05-18T03:20:41.679Z,1.35
2023-05-18T03:21:41.685Z,1.37
2023-05-18T03:22:41.684Z,1.35
2023-05-18T03:23:41.681Z,1.37
2023-05-18T03:24:41.678Z,1.40
2023-05-18T03:25:41.669Z,1.33
2023-05-18T03:26:41.672Z,1.35
2023-05-18T03:27:41.671Z,1.34
2023-05-18T03:28:41.674Z,1.37
2023-05-18T03:29:41.685Z,1.33
2023-05-18T03:30:41.684Z,1.35
2023-05-18T03:31:41.730Z,1.36
2023-05-18T03:32:41.837Z,1.32
2023-05-18T03:33:41.714Z,1.35
2023-05-18T03:34:41.687Z,1.34
2023-05-18T03:35:41.675Z,1.35
2023-05-18T03:36:41.680Z,1.31
2023-05-18T03:37:41.682Z,1.34
2023-05-18T03:38:41.743Z,1.35
2023-05-18T03:39:41.681Z,1.36
2023-05-18T03:40:41.688Z,1.36
2023-05-18T03:41:41.683Z,1.34
2023-05-18T03:42:41.680Z,1.33
2023-05-18T03:43:41.688Z,1.31
2023-05-18T03:44:41.677Z,1.32
2023-05-18T03:45:41.665Z,1.32
2023-05-18T03:46:41.842Z,1.35
2023-05-18T03:47:41.760Z,1.34
2023-05-18T03:48:41.663Z,1.33
2023-05-18T03:49:41.667Z,1.32
2023-05-18T03:50:41.668Z,1.34
2023-05-18T03:51:41.674Z,1.33
2023-05-18T03:52:41.713Z,1.30
2023-05-18T03:53:41.752Z,1.32
2023-05-18T03:54:41.684Z,1.35
2023-05-18T03:55:41.681Z,1.33
2023-05-18T03:56:41.686Z,1.31
2023-05-18T03:57:41.707Z,1.32
2023-05-18T03:58:41.700Z,1.29
2023-05-18T03:59:42.240Z,1.34
2023-05-18T04:00:41.719Z,1.33
2023-05-18T04:01:41.813Z,1.31
2023-05-18T04:02:41.787Z,1.33
2023-05-18T04:03:41.829Z,1.31
2023-05-18T04:04:41.736Z,1.33
2023-05-18T04:05:41.741Z,1.31
2023-05-18T04:06:41.731Z,1.28
2023-05-18T04:07:41.744Z,1.31
2023-05-18T04:08:41.741Z,1.32
2023-05-18T04:09:41.740Z,1.31
2023-05-18T04:10:41.738Z,1.30
2023-05-18T04:11:41.744Z,1.31
2023-05-18T04:12:41.745Z,1.30
2023-05-18T04:13:41.750Z,1.30
2023-05-18T04:14:41.759Z,1.31
2023-05-18T04:15:41.762Z,1.31
2023-05-18T04:16:41.871Z,1.29
2023-05-18T04:17:41.803Z,1.32
2023-05-18T04:18:41.873Z,1.27
2023-05-18T04:19:41.786Z,1.30
2023-05-18T04:20:41.792Z,1.26
2023-05-18T04:21:41.811Z,1.29
2023-05-18T04:22:41.807Z,1.29
2023-05-18T04:23:41.809Z,1.30
2023-05-18T04:24:41.815Z,1.26
2023-05-18T04:25:41.805Z,1.29
2023-05-18T04:26:41.808Z,1.30
2023-05-18T04:27:41.820Z,1.29
2023-05-18T04:28:41.823Z,1.26
2023-05-18T04:29:41.822Z,1.28
2023-05-18T04:30:41.820Z,1.30
2023-05-18T04:31:41.893Z,1.25
2023-05-18T04:32:41.837Z,1.26
2023-05-18T04:33:41.839Z,1.27
2023-05-18T04:34:41.837Z,1.26
2023-05-18T04:35:41.840Z,1.29
2023-05-18T04:36:41.823Z,1.28
2023-05-18T04:37:41.832Z,1.26
2023-05-18T04:38:41.832Z,1.27
2023-05-18T04:39:41.845Z,1.28
2023-05-18T04:40:41.834Z,1.27
2023-05-18T04:41:41.841Z,1.28
2023-05-18T04:42:41.924Z,1.26
2023-05-18T04:43:41.933Z,1.24
2023-05-18T04:44:41.855Z,1.27
2023-05-18T04:45:41.904Z,1.27
2023-05-18T04:46:41.884Z,1.26
2023-05-18T04:47:41.904Z,1.27
2023-05-18T04:48:42.031Z,1.27
2023-05-18T04:49:41.892Z,1.30
2023-05-18T04:50:41.894Z,1.24
2023-05-18T04:51:41.905Z,1.25
2023-05-18T04:52:41.924Z,1.26
2023-05-18T04:53:41.920Z,1.25
2023-05-18T04:54:41.929Z,1.25
2023-05-18T04:55:41.941Z,1.24
2023-05-18T04:56:41.941Z,1.27
2023-05-18T04:57:41.953Z,1.22
2023-05-18T04:58:41.967Z,1.26
2023-05-18T04:59:41.974Z,1.23
2023-05-18T05:00:41.962Z,1.25
2023-05-18T05:01:42.010Z,1.23
2023-05-18T05:02:42.098Z,1.23
2023-05-18T05:03:42.107Z,1.23
2023-05-18T05:04:42.012Z,1.24
2023-05-18T05:05:42.073Z,1.25
2023-05-18T05:06:42.002Z,1.21
2023-05-18T05:07:42.009Z,1.24
2023-05-18T05:08:42.003Z,1.24
2023-05-18T05:09:42.014Z,1.21
2023-05-18T05:10:42.013Z,1.25
2023-05-18T05:11:42.016Z,1.22
2023-05-18T05:12:42.049Z,1.19
2023-05-18T05:13:42.031Z,1.24
2023-05-18T05:14:42.040Z,1.24
2023-05-18T05:15:42.125Z,1.21
2023-05-18T05:16:42.035Z,1.21
2023-05-18T05:17:42.093Z,1.20
2023-05-18T05:18:42.084Z,1.20
2023-05-18T05:19:42.047Z,1.21
2023-05-18T05:20:42.049Z,1.19
2023-05-18T05:21:42.103Z,1.20
2023-05-18T05:22:42.862Z,1.18
2023-05-18T05:23:42.059Z,1.21
2023-05-18T05:24:42.267Z,1.18
2023-05-18T05:25:42.769Z,1.20
2023-05-18T05:26:42.060Z,1.21
2023-05-18T05:27:42.057Z,1.20
2023-05-18T05:28:42.060Z,1.18
2023-05-18T05:29:42.113Z,1.18
2023-05-18T05:30:42.066Z,1.18
2023-05-18T05:31:42.101Z,1.19
2023-05-18T05:32:42.098Z,1.19
2023-05-18T05:33:42.086Z,1.18
2023-05-18T05:34:42.094Z,1.17
2023-05-18T05:35:42.086Z,1.18
2023-05-18T05:36:42.110Z,1.18
2023-05-18T05:37:42.097Z,1.17
2023-05-18T05:38:42.111Z,1.17
2023-05-18T05:39:42.095Z,1.16
2023-05-18T05:40:42.095Z,1.17
2023-05-18T05:41:42.103Z,1.20
2023-05-18T05:42:42.105Z,1.15
2023-05-18T05:43:42.109Z,1.19
2023-05-18T05:44:42.111Z,1.18
2023-05-18T05:45:42.116Z,1.18
2023-05-18T05:46:42.171Z,1.18
2023-05-18T05:47:42.155Z,1.16
2023-05-18T05:48:42.146Z,1.14
2023-05-18T05:49:42.130Z,1.16
2023-05-18T05:50:42.149Z,1.16
2023-05-18T05:51:42.166Z,1.19
2023-05-18T05:52:42.137Z,1.12
2023-05-18T05:53:42.138Z,1.16
2023-05-18T05:54:42.162Z,1.17
2023-05-18T05:55:42.191Z,1.17
2023-05-18T05:56:42.142Z,1.15
2023-05-18T05:57:42.147Z,1.13
2023-05-18T05:58:42.149Z,1.17
2023-05-18T05:59:42.153Z,1.16
2023-05-18T06:00:42.158Z,1.16
2023-05-18T06:01:42.175Z,1.16
2023-05-18T06:02:42.262Z,1.14
2023-05-18T06:03:42.193Z,1.15
2023-05-18T06:04:42.177Z,1.15
2023-05-18T06:05:42.170Z,1.14
2023-05-18T06:06:42.183Z,1.15
2023-05-18T06:07:42.185Z,1.15
2023-05-18T06:08:42.192Z,1.11
2023-05-18T06:09:42.187Z,1.13
2023-05-18T06:10:42.254Z,1.12
2023-05-18T06:11:42.177Z,1.14
2023-05-18T06:12:42.183Z,1.16
2023-05-18T06:13:42.184Z,1.15
2023-05-18T06:14:42.182Z,1.12
2023-05-18T06:15:42.185Z,1.12
2023-05-18T06:16:42.211Z,1.13
2023-05-18T06:17:42.229Z,1.10
2023-05-18T06:18:42.213Z,1.12
2023-05-18T06:19:42.191Z,1.13
2023-05-18T06:20:42.196Z,1.12
2023-05-18T06:21:42.194Z,1.15
2023-05-18T06:22:42.203Z,1.11
2023-05-18T06:23:42.261Z,1.13
2023-05-18T06:24:42.216Z,1.09
2023-05-18T06:25:42.201Z,1.12
2023-05-18T06:26:42.201Z,1.09
2023-05-18T06:27:42.204Z,1.12
2023-05-18T06:28:42.207Z,1.09
2023-05-18T06:29:42.206Z,1.11
2023-05-18T06:30:42.204Z,1.10
2023-05-18T06:31:42.845Z,1.11
2023-05-18T06:32:42.229Z,1.09
2023-05-18T06:33:42.252Z,1.08
2023-05-18T06:34:42.199Z,1.11
2023-05-18T06:35:42.213Z,1.11
2023-05-18T06:36:42.209Z,1.11
2023-05-18T06:37:42.209Z,1.10
2023-05-18T06:38:42.209Z,1.09
2023-05-18T06:39:42.229Z,1.09
2023-05-18T06:40:42.226Z,1.11
2023-05-18T06:41:42.239Z,1.11
2023-05-18T06:42:42.214Z,1.10
2023-05-18T06:43:42.211Z,1.09
2023-05-18T06:44:42.233Z,1.08
2023-05-18T06:45:42.296Z,1.09
2023-05-18T06:46:42.335Z,1.09
2023-05-18T06:47:42.271Z,1.07
2023-05-18T06:48:42.202Z,1.07
2023-05-18T06:49:42.226Z,1.06
2023-05-18T06:50:42.209Z,1.09
2023-05-18T06:51:42.193Z,1.07
2023-05-18T06:52:42.220Z,1.07
2023-05-18T06:53:42.197Z,1.07
2023-05-18T06:54:42.188Z,1.08
2023-05-18T06:55:42.203Z,1.07
2023-05-18T06:56:42.189Z,1.05
2023-05-18T06:57:42.192Z,1.08
2023-05-18T06:58:42.177Z,1.05
2023-05-18T06:59:42.180Z,1.10
2023-05-18T07:00:42.179Z,1.05
2023-05-18T07:01:42.296Z,1.09
2023-05-18T07:02:42.194Z,1.06
2023-05-18T07:03:42.210Z,1.07
2023-05-18T07:04:42.167Z,1.06
2023-05-18T07:05:42.250Z,1.07
2023-05-18T07:06:42.164Z,1.06
2023-05-18T07:07:42.193Z,1.05
2023-05-18T07:08:42.188Z,1.05
2023-05-18T07:09:42.138Z,1.07
2023-05-18T07:10:42.144Z,1.04
2023-05-18T07:11:42.149Z,1.08
2023-05-18T07:12:42.136Z,1.05
2023-05-18T07:13:42.174Z,1.04
2023-05-18T07:14:42.132Z,1.04
2023-05-18T07:15:42.159Z,1.02
2023-05-18T07:16:42.144Z,1.04
2023-05-18T07:17:42.152Z,1.04
2023-05-18T07:18:42.203Z,1.04
2023-05-18T07:19:42.095Z,1.02
2023-05-18T07:20:42.089Z,1.04
2023-05-18T07:21:42.100Z,1.04
2023-05-18T07:22:42.073Z,1.03
2023-05-18T07:23:42.059Z,1.02
2023-05-18T07:24:42.048Z,1.03
2023-05-18T07:25:42.038Z,1.01
2023-05-18T07:26:42.026Z,1.04
2023-05-18T07:27:42.030Z,1.05
2023-05-18T07:28:42.020Z,1.05
2023-05-18T07:29:42.150Z,1.03
2023-05-18T07:30:42.038Z,1.03
2023-05-18T07:31:42.065Z,1.02
2023-05-18T07:32:42.044Z,1.03
2023-05-18T07:33:42.032Z,1.04
2023-05-18T07:34:42.036Z,1.03
2023-05-18T07:35:42.040Z,1.02
2023-05-18T07:36:42.012Z,1.04
2023-05-18T07:37:42.060Z,1.01
2023-05-18T07:38:42.016Z,1.00
2023-05-18T07:39:42.005Z,1.01
2023-05-18T07:40:42.018Z,1.00
2023-05-18T07:41:41.983Z,1.01
2023-05-18T07:42:41.986Z,1.02
2023-05-18T07:43:41.974Z,1.01
2023-05-18T07:44:42.818Z,1.01
2023-05-18T07:45:41.991Z,1.01
2023-05-18T07:46:41.985Z,0.99
2023-05-18T07:47:42.008Z,0.99
2023-05-18T07:48:41.937Z,1.01
2023-05-18T07:49:41.923Z,1.00
2023-05-18T07:50:41.934Z,1.01
2023-05-18T07:51:42.830Z,1.00
2023-05-18T07:52:41.907Z,0.99
2023-05-18T07:53:41.913Z,1.00
2023-05-18T07:54:41.903Z,1.00
2023-05-18T07:55:41.901Z,1.00
2023-05-18T07:56:41.895Z,1.00
2023-05-18T07:57:41.924Z,0.99
2023-05-18T07:58:41.870Z,0.99
2023-05-18T07:59:41.862Z,1.00
2023-05-18T08:00:41.866Z,0.98
2023-05-18T08:01:42.865Z,0.98
2023-05-18T08:02:42.058Z,1.00
2023-05-18T08:03:42.063Z,1.00
2023-05-18T08:04:41.892Z,1.00
2023-05-18T08:05:41.892Z,1.00
2023-05-18T08:06:41.895Z,0.98
2023-05-18T08:07:41.906Z,0.99
2023-05-18T08:08:41.884Z,1.00
2023-05-18T08:09:41.890Z,0.98
2023-05-18T08:10:41.863Z,0.99
2023-05-18T08:11:41.855Z,0.97
2023-05-18T08:12:41.854Z,0.98
2023-05-18T08:13:42.839Z,0.99
2023-05-18T08:14:41.832Z,0.98
2023-05-18T08:15:41.834Z,0.97
2023-05-18T08:16:42.198Z,0.97
2023-05-18T08:17:41.993Z,0.98
2023-05-18T08:18:41.867Z,0.97
2023-05-18T08:19:42.024Z,0.97
2023-05-18T08:20:41.790Z,0.97
2023-05-18T08:21:41.836Z,0.97
2023-05-18T08:22:41.757Z,0.96
2023-05-18T08:23:42.326Z,0.96
2023-05-18T08:24:41.719Z,0.97
2023-05-18T08:25:41.758Z,0.95
2023-05-18T08:26:41.698Z,0.95
2023-05-18T08:27:41.689Z,0.95
2023-05-18T08:28:41.673Z,0.96
2023-05-18T08:29:41.672Z,0.95
2023-05-18T08:30:41.835Z,0.96
2023-05-18T08:31:41.681Z,0.96
2023-05-18T08:32:41.708Z,0.94
2023-05-18T08:33:41.676Z,0.96
2023-05-18T08:34:41.688Z,0.93
2023-05-18T08:35:41.688Z,0.94
2023-05-18T08:36:41.698Z,0.96
2023-05-18T08:37:41.716Z,0.96
2023-05-18T08:38:41.699Z,0.95
2023-05-18T08:39:41.686Z,0.96
2023-05-18T08:40:41.678Z,0.95
2023-05-18T08:41:41.658Z,0.94
2023-05-18T08:42:49.394Z,0.96
2023-05-18T08:43:42.634Z,0.97
2023-05-18T08:44:41.618Z,0.95
2023-05-18T08:45:41.714Z,0.96
2023-05-18T08:46:41.590Z,0.95
2023-05-18T08:47:41.737Z,0.95
2023-05-18T08:48:41.657Z,0.95
2023-05-18T08:49:41.538Z,0.93
2023-05-18T08:50:41.539Z,0.94
2023-05-18T08:51:41.521Z,0.92
2023-05-18T08:52:41.512Z,0.94
2023-05-18T08:53:41.486Z,0.94
2023-05-18T08:54:41.470Z,0.94
2023-05-18T08:55:41.452Z,0.95
2023-05-18T08:56:41.424Z,0.94
2023-05-18T08:57:41.418Z,0.94
2023-05-18T08:58:41.385Z,0.94
2023-05-18T08:59:41.369Z,0.93
2023-05-18T09:00:41.361Z,0.94
2023-05-18T09:01:41.403Z,0.94
2023-05-18T09:02:41.358Z,0.94
2023-05-18T09:03:41.295Z,0.93
2023-05-18T09:04:41.351Z,0.93
2023-05-18T09:05:41.356Z,0.93
2023-05-18T09:06:41.311Z,0.92
2023-05-18T09:07:41.315Z,0.92
2023-05-18T09:08:41.211Z,0.93
2023-05-18T09:09:41.205Z,0.92
2023-05-18T09:10:41.189Z,0.91
2023-05-18T09:11:41.192Z,0.94
2023-05-18T09:12:41.146Z,0.91
2023-05-18T09:13:41.144Z,0.92
2023-05-18T09:14:41.126Z,0.91
2023-05-18T09:15:41.189Z,0.92
2023-05-18T09:16:41.103Z,0.92
2023-05-18T09:17:41.117Z,0.93
2023-05-18T09:18:41.123Z,0.92
2023-05-18T09:19:41.088Z,0.92
2023-05-18T09:20:41.083Z,0.91
2023-05-18T09:21:41.097Z,0.92
2023-05-18T09:22:41.218Z,0.91
2023-05-18T09:23:41.150Z,0.91
2023-05-18T09:24:41.119Z,0.91
2023-05-18T09:25:41.084Z,0.92
2023-05-18T09:26:41.080Z,0.91
2023-05-18T09:27:41.074Z,0.91
2023-05-18T09:28:41.078Z,0.89
2023-05-18T09:29:41.061Z,0.91
2023-05-18T09:30:41.059Z,0.91
2023-05-18T09:31:41.148Z,0.94
2023-05-18T09:32:41.078Z,0.92
2023-05-18T09:33:41.170Z,0.90
2023-05-18T09:34:41.090Z,0.90
2023-05-18T09:35:41.126Z,0.90
2023-05-18T09:36:41.145Z,0.90
2023-05-18T09:37:41.148Z,0.91
2023-05-18T09:38:41.173Z,0.90
2023-05-18T09:39:41.186Z,0.90
2023-05-18T09:40:41.217Z,0.91
2023-05-18T09:41:41.228Z,0.91
2023-05-18T09:42:41.241Z,0.89
2023-05-18T09:43:41.229Z,0.91
2023-05-18T09:44:41.264Z,0.90
2023-05-18T09:45:41.304Z,0.89
2023-05-18T09:46:41.332Z,0.90
2023-05-18T09:47:41.356Z,0.90
2023-05-18T09:48:41.319Z,0.90
2023-05-18T09:49:41.328Z,0.90
2023-05-18T09:50:41.310Z,0.91
2023-05-18T09:51:41.329Z,0.88
2023-05-18T09:52:41.351Z,0.88
2023-05-18T09:53:41.398Z,0.89
2023-05-18T09:54:41.437Z,0.89
2023-05-18T09:55:41.455Z,0.90
2023-05-18T09:56:41.534Z,0.90
2023-05-18T09:57:41.454Z,0.90
2023-05-18T09:58:41.478Z,0.88
2023-05-18T09:59:41.557Z,0.89
2023-05-18T10:00:41.578Z,0.89
2023-05-18T10:01:41.553Z,0.88
2023-05-18T10:02:41.735Z,0.88
2023-05-18T10:03:41.645Z,0.90
2023-05-18T10:04:41.762Z,0.89
2023-05-18T10:05:41.724Z,0.90
2023-05-18T10:06:41.780Z,0.87
2023-05-18T10:07:41.799Z,0.90
2023-05-18T10:08:41.818Z,0.87
2023-05-18T10:09:41.887Z,0.89
2023-05-18T10:10:41.911Z,0.89
2023-05-18T10:11:42.045Z,0.89
2023-05-18T10:12:42.006Z,0.88
2023-05-18T10:13:42.054Z,0.89
2023-05-18T10:14:42.108Z,0.87
2023-05-18T10:15:42.163Z,0.89
2023-05-18T10:16:42.180Z,0.89
2023-05-18T10:17:42.268Z,0.87
2023-05-18T10:18:42.206Z,0.89
2023-05-18T10:19:42.215Z,0.87
2023-05-18T10:20:42.251Z,0.88
2023-05-18T10:21:42.282Z,0.88
2023-05-18T10:22:42.321Z,0.88
2023-05-18T10:23:42.373Z,0.87
2023-05-18T10:24:42.414Z,0.88
2023-05-18T10:25:42.571Z,0.87
2023-05-18T10:26:42.533Z,0.87
2023-05-18T10:27:42.571Z,0.87
2023-05-18T10:28:42.611Z,0.88
2023-05-18T10:29:42.642Z,0.88
2023-05-18T10:30:42.739Z,0.88
2023-05-18T10:31:42.754Z,0.87
2023-05-18T10:32:42.834Z,0.87
2023-05-18T10:33:42.901Z,0.87
2023-05-18T10:34:42.877Z,0.87
2023-05-18T10:35:42.934Z,0.87
2023-05-18T10:36:42.957Z,0.86
2023-05-18T10:37:42.981Z,0.86
2023-05-18T10:38:43.109Z,0.86
2023-05-18T10:39:43.068Z,0.86
2023-05-18T10:40:43.100Z,0.86
2023-05-18T10:41:43.156Z,0.87
2023-05-18T10:42:43.224Z,0.85
2023-05-18T10:43:43.284Z,0.85
2023-05-18T10:44:43.341Z,0.87
2023-05-18T10:45:43.393Z,0.85
2023-05-18T10:46:43.478Z,0.86
2023-05-18T10:47:43.748Z,0.86
2023-05-18T10:48:43.519Z,0.86
2023-05-18T10:49:43.523Z,0.85
2023-05-18T10:50:43.559Z,0.86
2023-05-18T10:51:43.591Z,0.87
2023-05-18T10:52:43.627Z,0.84
2023-05-18T10:53:43.669Z,0.86
2023-05-18T10:54:43.700Z,0.87
2023-05-18T10:55:43.751Z,0.85
2023-05-18T10:56:43.773Z,0.85
2023-05-18T10:57:43.813Z,0.84
2023-05-18T10:58:43.859Z,0.85
2023-05-18T10:59:45.436Z,0.84
2023-05-18T11:00:44.389Z,0.85
2023-05-18T11:01:43.971Z,0.88
2023-05-18T11:02:43.902Z,0.85
2023-05-18T11:03:43.857Z,0.85
2023-05-18T11:04:43.892Z,0.86
2023-05-18T11:05:43.861Z,0.85
2023-05-18T11:06:43.809Z,0.85
2023-05-18T11:07:43.794Z,0.84
2023-05-18T11:08:43.796Z,0.85
2023-05-18T11:09:43.816Z,0.84
2023-05-18T11:10:43.774Z,0.85
2023-05-18T11:11:43.770Z,0.85
2023-05-18T11:12:43.751Z,0.85
2023-05-18T11:13:43.737Z,0.84
2023-05-18T11:14:43.727Z,0.85
2023-05-18T11:15:43.742Z,0.84
2023-05-18T11:16:43.809Z,0.84
2023-05-18T11:17:43.723Z,0.84
2023-05-18T11:18:43.718Z,0.83
2023-05-18T11:19:43.672Z,0.84
2023-05-18T11:20:43.660Z,0.83
2023-05-18T11:21:43.666Z,0.83
2023-05-18T11:22:43.678Z,0.83
2023-05-18T11:23:43.636Z,0.83
2023-05-18T11:24:43.635Z,0.82
2023-05-18T11:25:43.604Z,0.83
2023-05-18T11:26:43.613Z,0.82
2023-05-18T11:27:43.638Z,0.82
2023-05-18T11:28:43.592Z,0.83
2023-05-18T11:29:43.569Z,0.84
2023-05-18T11:30:43.538Z,0.82
2023-05-18T11:31:43.652Z,0.82
2023-05-18T11:32:43.682Z,0.82
2023-05-18T11:33:43.558Z,0.82
2023-05-18T11:34:43.500Z,0.83
2023-05-18T11:35:43.493Z,0.82
2023-05-18T11:36:43.478Z,0.83
2023-05-18T11:37:43.459Z,0.82
2023-05-18T11:38:43.451Z,0.83
2023-05-18T11:39:55.266Z,0.82
2023-05-18T11:40:44.430Z,0.83
2023-05-18T11:41:43.409Z,0.83
2023-05-18T11:42:43.394Z,0.83
2023-05-18T11:43:43.434Z,0.84
2023-05-18T11:44:43.368Z,0.84
2023-05-18T11:45:43.947Z,0.83
2023-05-18T11:46:43.339Z,0.83
2023-05-18T11:47:43.443Z,0.82
2023-05-18T11:48:43.369Z,0.83
2023-05-18T11:49:43.303Z,0.81
2023-05-18T11:50:43.423Z,0.82
2023-05-18T11:51:43.390Z,0.82
2023-05-18T11:52:43.439Z,0.82
2023-05-18T11:53:43.508Z,0.83
2023-05-18T11:54:43.569Z,0.81
2023-05-18T11:55:43.602Z,0.81
2023-05-18T11:56:43.665Z,0.83
2023-05-18T11:57:43.721Z,0.82
2023-05-18T11:58:44.403Z,0.82
2023-05-18T11:59:43.823Z,0.81
2023-05-18T12:00:43.880Z,0.82
2023-05-18T12:01:43.966Z,0.81
2023-05-18T12:02:44.182Z,0.82
2023-05-18T12:03:46.137Z,0.82
2023-05-18T12:04:44.006Z,0.83
2023-05-18T12:05:43.993Z,0.81
2023-05-18T12:06:43.968Z,0.82
2023-05-18T12:07:43.958Z,0.81
2023-05-18T12:08:43.972Z,0.80
2023-05-18T12:09:43.928Z,0.80
2023-05-18T12:10:43.918Z,0.83
2023-05-18T12:11:43.895Z,0.82
2023-05-18T12:12:43.890Z,0.80
2023-05-18T12:13:43.868Z,0.81
2023-05-18T12:14:43.848Z,0.83
2023-05-18T12:15:43.858Z,0.82
2023-05-18T12:16:43.902Z,0.81
2023-05-18T12:17:43.933Z,0.81
2023-05-18T12:18:43.923Z,0.82
2023-05-18T12:19:43.914Z,0.81
2023-05-18T12:20:43.786Z,0.81
2023-05-18T12:21:43.767Z,0.80
2023-05-18T12:22:43.735Z,0.80
2023-05-18T12:23:43.721Z,0.80
2023-05-18T12:24:43.703Z,0.80
2023-05-18T12:25:43.697Z,0.80
2023-05-18T12:26:43.669Z,0.81
2023-05-18T12:27:43.736Z,0.81
2023-05-18T12:28:43.631Z,0.80
2023-05-18T12:29:43.625Z,0.80
2023-05-18T12:30:43.681Z,0.81
2023-05-18T12:31:43.665Z,0.81
2023-05-18T12:32:43.728Z,0.80
2023-05-18T12:33:43.725Z,0.80
2023-05-18T12:34:43.767Z,0.79
2023-05-18T12:35:43.822Z,0.80
2023-05-18T12:36:43.863Z,0.79
2023-05-18T12:37:45.107Z,0.80
2023-05-18T12:38:43.971Z,0.79
2023-05-18T12:39:44.005Z,0.79
2023-05-18T12:40:44.063Z,0.80
2023-05-18T12:41:44.094Z,0.80
2023-05-18T12:42:44.131Z,0.80
2023-05-18T12:43:44.178Z,0.79
2023-05-18T12:44:44.228Z,0.79
2023-05-18T12:45:44.287Z,0.79
2023-05-18T12:46:44.403Z,0.79
2023-05-18T12:47:44.962Z,0.79
2023-05-18T12:48:44.445Z,0.78
2023-05-18T12:49:44.479Z,0.79
2023-05-18T12:50:46.151Z,0.80
2023-05-18T12:51:44.564Z,0.78
2023-05-18T12:52:44.609Z,0.78
2023-05-18T12:53:44.719Z,0.78
2023-05-18T12:54:44.704Z,0.80
2023-05-18T12:55:44.833Z,0.80
2023-05-18T12:56:44.809Z,0.80
2023-05-18T12:57:44.860Z,0.79
2023-05-18T12:58:44.924Z,0.79
2023-05-18T12:59:44.959Z,0.79
2023-05-18T13:00:45.012Z,0.79
2023-05-18T13:01:45.137Z,0.79
2023-05-18T13:02:45.170Z,0.80
2023-05-18T13:03:45.217Z,0.80
2023-05-18T13:04:45.228Z,0.79
2023-05-18T13:05:45.307Z,0.79
2023-05-18T13:06:45.929Z,0.79
2023-05-18T13:07:45.386Z,0.80
2023-05-18T13:08:45.431Z,0.78
2023-05-18T13:09:46.433Z,0.78
2023-05-18T13:10:45.546Z,0.79
2023-05-18T13:11:47.108Z,0.77
2023-05-18T13:12:45.613Z,0.79
2023-05-18T13:13:45.666Z,0.79
2023-05-18T13:14:45.714Z,0.79
2023-05-18T13:15:45.765Z,0.78
2023-05-18T13:16:45.899Z,0.78
2023-05-18T13:17:45.901Z,0.79
2023-05-18T13:18:45.941Z,0.80